Terminal Aerodrome Forecast
Issued by NWS

Home | Current Version | Previous Version | Text Only | Print | Product List | Glossary On
Versions: 1 2 3 4 5 6 7 8 9 10 11 12 13
000
FTUS42 KTBW 191730
TAFPGD
TAF
KPGD 191730Z 1918/2018 29005KT P6SM FEW035 SCT200
     FM192100 05005KT P6SM SCT050
     FM200000 VRB03KT P6SM SCT050
     FM201700 09007KT P6SM BKN100=

USA.gov is the U.S. government's official web portal to all federal, state and local government web resources and services.